createdAt,value
2022-08-26T00:00:48.811Z,6.20
2022-08-26T00:01:48.920Z,6.40
2022-08-26T00:02:48.858Z,5.80
2022-08-26T00:03:48.855Z,6.40
2022-08-26T00:04:48.805Z,6.00
2022-08-26T00:05:48.849Z,6.10
2022-08-26T00:06:48.777Z,5.70
2022-08-26T00:07:48.761Z,5.80
2022-08-26T00:08:48.827Z,6.20
2022-08-26T00:09:48.733Z,6.10
2022-08-26T00:10:48.742Z,5.70
2022-08-26T00:11:48.697Z,6.20
2022-08-26T00:12:48.804Z,6.00
2022-08-26T00:13:49.457Z,6.20
2022-08-26T00:14:48.674Z,6.00
2022-08-26T00:15:48.705Z,6.40
2022-08-26T00:16:49.050Z,5.70
2022-08-26T00:17:49.636Z,5.90
2022-08-26T00:18:48.655Z,6.10
2022-08-26T00:19:48.712Z,6.70
2022-08-26T00:20:48.821Z,6.30
2022-08-26T00:21:49.624Z,6.20
2022-08-26T00:22:48.609Z,5.90
2022-08-26T00:23:48.568Z,6.60
2022-08-26T00:24:48.634Z,6.20
2022-08-26T00:25:48.529Z,6.00
2022-08-26T00:26:48.661Z,6.40
2022-08-26T00:27:48.549Z,6.10
2022-08-26T00:28:48.593Z,6.10
2022-08-26T00:29:48.519Z,6.30
2022-08-26T00:30:48.536Z,6.20
2022-08-26T00:31:48.641Z,6.00
2022-08-26T00:32:48.474Z,6.10
2022-08-26T00:33:48.501Z,5.90
2022-08-26T00:34:48.485Z,6.40
2022-08-26T00:35:48.472Z,6.70
2022-08-26T00:36:51.725Z,6.20
2022-08-26T00:37:48.432Z,6.40
2022-08-26T00:38:48.560Z,6.10
2022-08-26T00:39:48.506Z,7.00
2022-08-26T00:40:48.450Z,6.00
2022-08-26T00:41:48.413Z,6.20
2022-08-26T00:42:48.387Z,6.40
2022-08-26T00:43:48.425Z,6.40
2022-08-26T00:44:48.420Z,6.70
2022-08-26T00:45:49.396Z,6.60
2022-08-26T00:46:48.358Z,6.00
2022-08-26T00:47:48.365Z,6.30
2022-08-26T00:48:49.246Z,6.30
2022-08-26T00:49:48.491Z,6.00
2022-08-26T00:50:48.340Z,5.90
2022-08-26T00:51:48.377Z,6.20
2022-08-26T00:52:49.342Z,6.40
2022-08-26T00:53:48.306Z,6.70
2022-08-26T00:54:48.828Z,6.60
2022-08-26T00:55:48.329Z,6.50
2022-08-26T00:56:48.626Z,6.50
2022-08-26T00:57:48.229Z,6.80
2022-08-26T00:58:48.277Z,6.90
2022-08-26T00:59:48.281Z,6.50
2022-08-26T01:00:48.304Z,6.80
2022-08-26T01:01:48.277Z,6.80
2022-08-26T01:02:48.323Z,6.80
2022-08-26T01:03:48.196Z,6.60
2022-08-26T01:04:48.198Z,7.20
2022-08-26T01:05:49.201Z,6.70
2022-08-26T01:06:48.156Z,7.20
2022-08-26T01:07:48.932Z,7.30
2022-08-26T01:08:48.175Z,7.00
2022-08-26T01:09:48.465Z,7.20
2022-08-26T01:10:48.259Z,6.70
2022-08-26T01:11:48.190Z,6.40
2022-08-26T01:12:48.103Z,6.90
2022-08-26T01:13:48.170Z,6.90
2022-08-26T01:14:48.088Z,6.80
2022-08-26T01:15:48.079Z,6.90
2022-08-26T01:16:48.308Z,7.30
2022-08-26T01:17:48.060Z,7.00
2022-08-26T01:18:48.071Z,7.10
2022-08-26T01:19:48.045Z,7.30
2022-08-26T01:20:50.700Z,7.40
2022-08-26T01:21:48.029Z,6.80
2022-08-26T01:22:48.000Z,6.90
2022-08-26T01:23:48.841Z,7.40
2022-08-26T01:24:48.033Z,7.30
2022-08-26T01:25:47.980Z,7.00
2022-08-26T01:26:47.936Z,6.50
2022-08-26T01:27:49.209Z,7.10
2022-08-26T01:28:50.671Z,7.00
2022-08-26T01:29:48.030Z,6.50
2022-08-26T01:30:48.000Z,6.60
2022-08-26T01:31:48.426Z,6.60
2022-08-26T01:32:47.907Z,6.60
2022-08-26T01:33:47.921Z,6.80
2022-08-26T01:34:47.929Z,6.90
2022-08-26T01:35:47.917Z,7.20
2022-08-26T01:36:51.177Z,7.10
2022-08-26T01:37:47.845Z,7.30
2022-08-26T01:38:47.804Z,6.80
2022-08-26T01:39:48.095Z,6.70
2022-08-26T01:40:48.039Z,7.00
2022-08-26T01:41:47.862Z,7.10
2022-08-26T01:42:48.817Z,7.20
2022-08-26T01:43:47.778Z,7.10
2022-08-26T01:44:47.825Z,6.80
2022-08-26T01:45:47.826Z,6.70
2022-08-26T01:46:47.898Z,6.80
2022-08-26T01:47:47.730Z,6.90
2022-08-26T01:48:47.771Z,6.80
2022-08-26T01:49:47.757Z,7.10
2022-08-26T01:50:47.725Z,6.70
2022-08-26T01:51:47.731Z,6.10
2022-08-26T01:52:50.014Z,6.80
2022-08-26T01:53:48.719Z,6.50
2022-08-26T01:54:50.550Z,6.10
2022-08-26T01:55:47.717Z,6.30
2022-08-26T01:56:47.681Z,6.40
2022-08-26T01:57:47.661Z,6.80
2022-08-26T01:58:47.624Z,6.90
2022-08-26T01:59:47.637Z,6.20
2022-08-26T02:00:47.848Z,6.10
2022-08-26T02:01:47.624Z,6.60
2022-08-26T02:02:47.596Z,6.70
2022-08-26T02:03:47.596Z,6.50
2022-08-26T02:04:48.300Z,6.30
2022-08-26T02:05:48.793Z,7.10
2022-08-26T02:06:47.560Z,6.60
2022-08-26T02:07:48.393Z,6.80
2022-08-26T02:08:47.531Z,6.90
2022-08-26T02:09:47.635Z,6.70
2022-08-26T02:10:47.543Z,6.80
2022-08-26T02:11:55.588Z,6.90
2022-08-26T02:12:47.497Z,6.70
2022-08-26T02:13:47.504Z,7.40
2022-08-26T02:14:47.526Z,7.40
2022-08-26T02:15:47.515Z,6.90
2022-08-26T02:16:47.519Z,6.80
2022-08-26T02:17:47.455Z,7.40
2022-08-26T02:18:47.586Z,6.70
2022-08-26T02:19:47.450Z,7.80
2022-08-26T02:20:47.455Z,7.10
2022-08-26T02:21:51.011Z,7.30
2022-08-26T02:22:47.466Z,7.50
2022-08-26T02:23:47.362Z,6.80
2022-08-26T02:24:47.433Z,7.50
2022-08-26T02:25:48.224Z,7.30
2022-08-26T02:26:47.369Z,7.60
2022-08-26T02:27:47.354Z,7.10
2022-08-26T02:28:47.347Z,7.50
2022-08-26T02:29:48.348Z,7.30
2022-08-26T02:30:47.326Z,7.40
2022-08-26T02:31:47.339Z,7.60
2022-08-26T02:45:09.845Z,5.30
2022-08-26T02:46:09.885Z,7.10
2022-08-26T02:47:09.892Z,7.50
2022-08-26T02:48:10.191Z,7.60
2022-08-26T02:49:09.862Z,8.20
2022-08-26T02:50:09.913Z,8.00
2022-08-26T02:51:09.838Z,7.70
2022-08-26T02:52:09.804Z,8.10
2022-08-26T02:53:09.950Z,7.70
2022-08-26T02:54:09.771Z,7.30
2022-08-26T02:55:09.787Z,7.70
2022-08-26T02:56:09.741Z,7.70
2022-08-26T02:57:09.770Z,8.20
2022-08-26T02:58:09.719Z,8.20
2022-08-26T02:59:09.733Z,8.60
2022-08-26T03:00:09.749Z,7.60
2022-08-26T03:01:09.753Z,7.50
2022-08-26T03:02:10.981Z,7.30
2022-08-26T03:03:10.914Z,7.30
2022-08-26T03:04:11.726Z,7.80
2022-08-26T03:05:10.912Z,7.80
2022-08-26T03:06:10.864Z,7.80
2022-08-26T03:07:10.848Z,7.50
2022-08-26T03:08:10.773Z,7.50
2022-08-26T03:09:11.633Z,7.80
2022-08-26T03:10:10.806Z,8.00
2022-08-26T03:11:10.798Z,8.00
2022-08-26T03:12:10.797Z,8.20
2022-08-26T03:13:10.878Z,8.20
2022-08-26T03:14:10.790Z,8.30
2022-08-26T03:15:16.515Z,8.00
2022-08-26T03:16:11.805Z,7.60
2022-08-26T03:17:10.737Z,7.90
2022-08-26T03:18:10.788Z,7.90
2022-08-26T03:19:10.725Z,7.80
2022-08-26T03:20:10.754Z,8.00
2022-08-26T03:21:10.699Z,7.70
2022-08-26T03:22:10.693Z,7.80
2022-08-26T03:23:10.759Z,7.90
2022-08-26T03:24:10.678Z,8.20
2022-08-26T03:25:10.754Z,7.90
2022-08-26T03:26:10.952Z,7.40
2022-08-26T03:27:10.665Z,8.10
2022-08-26T03:28:10.600Z,7.90
2022-08-26T03:29:10.601Z,7.90
2022-08-26T03:30:11.848Z,7.80
2022-08-26T03:31:10.703Z,8.20
2022-08-26T03:32:13.175Z,8.20
2022-08-26T03:33:10.568Z,8.10
2022-08-26T03:34:11.360Z,8.20
2022-08-26T03:35:10.601Z,7.50
2022-08-26T03:36:10.527Z,7.90
2022-08-26T03:37:10.533Z,7.50
2022-08-26T03:38:10.535Z,7.70
2022-08-26T03:39:10.488Z,7.70
2022-08-26T03:40:10.632Z,7.80
2022-08-26T03:41:10.512Z,7.80
2022-08-26T03:42:10.718Z,7.70
2022-08-26T03:43:10.633Z,7.90
2022-08-26T03:44:10.445Z,7.70
2022-08-26T03:45:10.473Z,7.60
2022-08-26T03:46:10.452Z,7.50
2022-08-26T03:47:10.425Z,7.80
2022-08-26T03:48:10.438Z,7.30
2022-08-26T03:49:10.431Z,7.40
2022-08-26T03:50:10.413Z,7.60
2022-08-26T03:51:10.361Z,8.00
2022-08-26T03:52:10.390Z,7.70
2022-08-26T03:53:12.899Z,7.90
2022-08-26T03:54:10.390Z,8.00
2022-08-26T03:55:10.969Z,8.10
2022-08-26T03:56:10.321Z,8.00
2022-08-26T03:57:10.327Z,7.70
2022-08-26T03:58:10.316Z,6.80
2022-08-26T03:59:10.317Z,7.00
2022-08-26T04:00:10.382Z,7.10
2022-08-26T04:01:10.280Z,8.00
2022-08-26T04:02:11.651Z,7.30
2022-08-26T04:03:10.506Z,7.40
2022-08-26T04:04:10.281Z,7.80
2022-08-26T04:05:11.267Z,8.00
2022-08-26T04:06:10.209Z,8.10
2022-08-26T04:07:10.312Z,8.50
2022-08-26T04:08:10.243Z,8.20
2022-08-26T04:09:10.276Z,8.00
2022-08-26T04:10:10.224Z,7.90
2022-08-26T04:11:10.341Z,7.90
2022-08-26T04:12:10.154Z,8.50
2022-08-26T04:13:10.267Z,8.30
2022-08-26T04:14:11.150Z,7.80
2022-08-26T04:15:10.593Z,8.50
2022-08-26T04:16:10.374Z,8.20
2022-08-26T04:17:10.154Z,8.10
2022-08-26T04:18:10.271Z,7.70
2022-08-26T04:19:10.108Z,8.10
2022-08-26T04:20:10.122Z,8.20
2022-08-26T04:21:10.104Z,8.10
2022-08-26T04:22:10.072Z,8.60
2022-08-26T04:23:10.072Z,8.00
2022-08-26T04:24:12.022Z,8.20
2022-08-26T04:25:11.265Z,8.10
2022-08-26T04:26:10.031Z,7.90
2022-08-26T04:27:10.023Z,7.80
2022-08-26T04:28:10.044Z,7.90
2022-08-26T04:29:11.023Z,7.90
2022-08-26T04:30:10.677Z,8.30
2022-08-26T04:31:10.036Z,8.40
2022-08-26T04:32:09.933Z,8.10
2022-08-26T04:33:13.294Z,7.60
2022-08-26T04:34:11.077Z,8.10
2022-08-26T04:35:10.009Z,7.90
2022-08-26T04:36:09.901Z,7.50
2022-08-26T04:37:10.005Z,8.20
2022-08-26T04:38:09.897Z,7.40
2022-08-26T04:39:09.884Z,7.80
2022-08-26T04:40:09.941Z,8.00
2022-08-26T04:41:15.541Z,7.60
2022-08-26T04:42:09.900Z,7.40
2022-08-26T04:43:09.890Z,7.10
2022-08-26T04:44:09.885Z,8.10
2022-08-26T04:45:10.221Z,7.70
2022-08-26T04:46:10.193Z,8.30
2022-08-26T04:47:09.811Z,7.60
2022-08-26T04:48:10.140Z,7.40
2022-08-26T04:49:09.809Z,8.40
2022-08-26T04:50:10.973Z,7.90
2022-08-26T04:51:10.022Z,8.10
2022-08-26T04:52:09.749Z,8.50
2022-08-26T04:53:09.890Z,7.90
2022-08-26T04:54:09.725Z,8.30
2022-08-26T04:55:09.747Z,8.10
2022-08-26T04:56:09.725Z,8.10
2022-08-26T04:57:09.703Z,8.00
2022-08-26T04:58:10.436Z,8.40
2022-08-26T04:59:16.853Z,7.80
2022-08-26T05:00:10.733Z,8.40
2022-08-26T05:01:09.691Z,8.00
2022-08-26T05:02:09.738Z,8.90
2022-08-26T05:03:10.273Z,8.60
2022-08-26T05:04:09.739Z,8.20
2022-08-26T05:05:10.589Z,8.00
2022-08-26T05:06:09.635Z,8.20
2022-08-26T05:07:09.738Z,8.50
2022-08-26T05:08:09.612Z,8.10
2022-08-26T05:09:09.564Z,8.20
2022-08-26T05:10:09.562Z,8.00
2022-08-26T05:11:09.619Z,7.90
2022-08-26T05:12:09.660Z,8.20
2022-08-26T05:13:10.961Z,7.70
2022-08-26T05:14:09.568Z,7.80
2022-08-26T05:15:09.567Z,7.90
2022-08-26T05:16:09.801Z,8.50
2022-08-26T05:17:09.523Z,8.00
2022-08-26T05:18:10.619Z,8.00
2022-08-26T05:19:09.577Z,8.10
2022-08-26T05:20:09.476Z,8.30
2022-08-26T05:21:09.635Z,8.30
2022-08-26T05:22:09.495Z,7.90
2022-08-26T05:23:09.671Z,8.00
2022-08-26T05:24:09.450Z,8.30
2022-08-26T05:25:09.476Z,8.20
2022-08-26T05:26:09.468Z,8.50
2022-08-26T05:27:11.740Z,8.50
2022-08-26T05:28:09.405Z,7.90
2022-08-26T05:29:09.421Z,8.60
2022-08-26T05:30:09.476Z,8.00
2022-08-26T05:31:09.459Z,7.50
2022-08-26T05:32:09.386Z,7.40
2022-08-26T05:33:09.557Z,7.00
2022-08-26T05:34:09.358Z,6.50
2022-08-26T05:35:09.422Z,7.00
2022-08-26T05:36:09.381Z,7.60
2022-08-26T05:37:09.976Z,7.30
2022-08-26T05:38:12.425Z,7.30
2022-08-26T05:39:10.680Z,7.50
2022-08-26T05:40:09.307Z,7.50
2022-08-26T05:41:09.312Z,7.20
2022-08-26T05:42:09.427Z,7.50
2022-08-26T05:43:09.417Z,7.30
2022-08-26T05:44:09.353Z,8.20
2022-08-26T05:45:10.156Z,8.00
2022-08-26T05:46:09.397Z,7.90
2022-08-26T05:47:09.204Z,8.10
2022-08-26T05:48:09.188Z,8.00
2022-08-26T05:49:12.248Z,7.70
2022-08-26T05:50:09.212Z,8.30
2022-08-26T05:51:10.264Z,8.20
2022-08-26T05:52:09.145Z,8.30
2022-08-26T05:53:09.517Z,8.40
2022-08-26T05:54:10.469Z,8.40
2022-08-26T05:55:09.155Z,9.10
2022-08-26T05:56:09.163Z,8.70
2022-08-26T05:57:09.088Z,8.90
2022-08-26T05:58:09.084Z,8.40
2022-08-26T05:59:11.672Z,8.70
2022-08-26T06:00:09.226Z,8.30
2022-08-26T06:01:09.055Z,8.50
2022-08-26T06:02:09.033Z,8.40
2022-08-26T06:03:09.320Z,8.30
2022-08-26T06:04:09.026Z,8.60
2022-08-26T06:05:09.038Z,9.20
2022-08-26T06:06:09.573Z,8.80
2022-08-26T06:07:11.574Z,8.90
2022-08-26T06:08:08.951Z,8.60
2022-08-26T06:09:10.851Z,9.00
2022-08-26T06:10:31.035Z,9.30
2022-08-26T06:11:18.416Z,8.60
2022-08-26T06:12:08.928Z,8.90
2022-08-26T06:13:11.600Z,8.50
2022-08-26T06:14:09.524Z,8.40
2022-08-26T06:15:08.983Z,8.70
2022-08-26T06:16:08.985Z,8.70
2022-08-26T06:17:09.540Z,8.00
2022-08-26T06:18:08.922Z,8.20
2022-08-26T06:19:10.192Z,8.60
2022-08-26T06:20:08.948Z,8.50
2022-08-26T06:21:08.955Z,8.90
2022-08-26T06:22:08.841Z,8.90
2022-08-26T06:23:09.115Z,8.70
2022-08-26T06:24:08.829Z,8.80
2022-08-26T06:25:08.836Z,8.50
2022-08-26T06:26:09.319Z,8.90
2022-08-26T06:27:08.738Z,8.40
2022-08-26T06:28:08.782Z,8.50
2022-08-26T06:29:08.833Z,8.10
2022-08-26T06:30:08.717Z,8.30
2022-08-26T06:31:09.218Z,8.10
2022-08-26T06:32:08.902Z,8.00
2022-08-26T06:33:09.743Z,8.00
2022-08-26T06:34:10.936Z,8.00
2022-08-26T06:35:12.143Z,8.00
2022-08-26T06:36:08.728Z,7.90
2022-08-26T06:37:08.726Z,8.60
2022-08-26T06:38:08.670Z,8.40
2022-08-26T06:39:08.672Z,8.70
2022-08-26T06:40:08.772Z,7.80
2022-08-26T06:41:08.655Z,7.80
2022-08-26T06:42:41.286Z,8.10
2022-08-26T06:43:08.859Z,8.70
2022-08-26T06:44:08.714Z,8.30
2022-08-26T06:45:08.615Z,8.30
2022-08-26T06:46:08.771Z,8.50
2022-08-26T06:47:08.585Z,7.90
2022-08-26T06:48:08.580Z,8.10
2022-08-26T06:49:08.662Z,8.00
2022-08-26T06:50:08.499Z,8.00
2022-08-26T06:51:09.519Z,7.90
2022-08-26T06:52:08.512Z,7.90
2022-08-26T06:53:08.669Z,8.20
2022-08-26T06:54:08.607Z,7.80
2022-08-26T06:55:08.510Z,8.20
2022-08-26T06:56:08.480Z,8.00
2022-08-26T06:57:08.510Z,7.90
2022-08-26T06:58:08.441Z,8.70
2022-08-26T06:59:08.438Z,7.50
2022-08-26T07:00:08.436Z,7.90
2022-08-26T07:01:11.479Z,7.50
2022-08-26T07:02:09.546Z,8.10
2022-08-26T07:03:08.694Z,7.50
2022-08-26T07:04:10.641Z,8.70
2022-08-26T07:05:08.434Z,6.80
2022-08-26T07:06:08.384Z,7.80
2022-08-26T07:07:09.736Z,7.10
2022-08-26T07:08:08.440Z,7.90
2022-08-26T07:09:09.769Z,7.60
2022-08-26T07:10:08.409Z,7.30
2022-08-26T07:11:08.342Z,7.70
2022-08-26T07:12:08.308Z,8.00
2022-08-26T07:13:08.391Z,7.90
2022-08-26T07:14:08.303Z,8.10
2022-08-26T07:15:09.119Z,8.10
2022-08-26T07:16:08.345Z,7.90
2022-08-26T07:17:12.160Z,7.90
2022-08-26T07:18:10.367Z,7.80
2022-08-26T07:19:10.796Z,8.80
2022-08-26T07:20:08.248Z,8.50
2022-08-26T07:21:08.243Z,8.50
2022-08-26T07:22:09.185Z,8.30
2022-08-26T07:23:10.004Z,8.70
2022-08-26T07:24:08.497Z,8.90
2022-08-26T07:25:08.164Z,8.40
2022-08-26T07:26:08.472Z,8.20
2022-08-26T07:27:08.714Z,7.90
2022-08-26T07:28:08.481Z,8.00
2022-08-26T07:29:08.159Z,8.30
2022-08-26T07:30:19.107Z,8.00
2022-08-26T07:31:08.211Z,7.70
2022-08-26T07:32:08.139Z,7.80
2022-08-26T07:33:08.402Z,8.20
2022-08-26T07:34:08.135Z,7.40
2022-08-26T07:35:08.090Z,7.50
2022-08-26T07:36:08.092Z,7.30
2022-08-26T07:37:08.828Z,7.90
2022-08-26T07:38:09.003Z,7.90
2022-08-26T07:39:08.052Z,7.70
2022-08-26T07:40:08.108Z,8.20
2022-08-26T07:41:08.043Z,7.00
2022-08-26T07:42:08.640Z,7.70
2022-08-26T07:43:08.149Z,8.00
2022-08-26T07:44:08.506Z,8.90
2022-08-26T07:45:08.234Z,7.90
2022-08-26T07:46:07.985Z,7.90
2022-08-26T07:47:25.508Z,8.00
2022-08-26T07:48:09.951Z,8.00
2022-08-26T07:49:08.015Z,8.00
2022-08-26T07:50:07.944Z,8.10
2022-08-26T07:51:07.941Z,8.10
2022-08-26T07:52:08.241Z,7.20
2022-08-26T07:53:08.009Z,7.80
2022-08-26T07:54:08.028Z,7.60
2022-08-26T07:55:07.908Z,7.70
2022-08-26T07:56:07.911Z,7.70
2022-08-26T07:57:09.416Z,7.20
2022-08-26T07:58:07.879Z,7.70
2022-08-26T07:59:13.639Z,8.10
2022-08-26T08:00:08.837Z,7.50
2022-08-26T08:01:08.002Z,7.80
2022-08-26T08:02:07.836Z,7.90
2022-08-26T08:03:08.019Z,7.70
2022-08-26T08:04:08.134Z,7.70
2022-08-26T08:05:07.820Z,8.40
2022-08-26T08:06:07.813Z,7.80
2022-08-26T08:07:11.542Z,8.10
2022-08-26T08:08:26.648Z,7.80
2022-08-26T08:09:08.812Z,7.90
2022-08-26T08:10:11.516Z,7.80
2022-08-26T08:11:09.973Z,7.60
2022-08-26T08:12:07.711Z,7.90
2022-08-26T08:13:07.886Z,8.40
2022-08-26T08:14:08.430Z,8.00
2022-08-26T08:15:07.751Z,7.70
2022-08-26T08:16:07.700Z,7.30
2022-08-26T08:17:07.894Z,7.70
2022-08-26T08:18:15.328Z,8.10
2022-08-26T08:19:08.661Z,7.40
2022-08-26T08:20:07.639Z,7.20
2022-08-26T08:21:24.154Z,7.20
2022-08-26T08:22:17.480Z,7.10
2022-08-26T08:23:08.594Z,8.30
2022-08-26T08:24:07.616Z,7.50
2022-08-26T08:25:08.178Z,7.40
2022-08-26T08:26:08.330Z,8.10
2022-08-26T08:27:07.631Z,7.80
2022-08-26T08:28:07.759Z,7.70
2022-08-26T08:29:08.208Z,7.90
2022-08-26T08:30:07.544Z,7.90
2022-08-26T08:31:07.611Z,7.30
2022-08-26T08:32:11.438Z,7.40
2022-08-26T08:33:07.500Z,6.70
2022-08-26T08:34:07.481Z,7.40
2022-08-26T08:35:11.082Z,6.80
2022-08-26T08:36:09.287Z,7.20
2022-08-26T08:37:10.650Z,6.80
2022-08-26T08:39:17.646Z,6.30
2022-08-26T08:40:17.691Z,7.30
2022-08-26T08:41:17.621Z,6.30
2022-08-26T08:42:18.754Z,6.70
2022-08-26T08:43:18.779Z,7.00
2022-08-26T08:44:18.769Z,6.80
2022-08-26T08:45:18.731Z,7.10
2022-08-26T08:46:18.773Z,6.60
2022-08-26T08:47:18.793Z,6.40
2022-08-26T08:48:18.795Z,6.40
2022-08-26T08:49:18.822Z,6.10
2022-08-26T08:50:18.978Z,6.00
2022-08-26T08:51:18.734Z,6.20
2022-08-26T08:52:18.680Z,6.40
2022-08-26T08:53:18.653Z,6.20
2022-08-26T08:54:19.405Z,6.10
2022-08-26T08:55:18.832Z,6.30
2022-08-26T08:57:44.459Z,6.20
2022-08-26T08:57:46.515Z,6.90
2022-08-26T08:58:46.566Z,6.40
2022-08-26T08:59:48.550Z,6.10
2022-08-26T09:00:46.839Z,5.60
2022-08-26T09:01:46.600Z,6.10
2022-08-26T09:03:02.642Z,6.50
2022-08-26T09:03:47.413Z,5.60
2022-08-26T09:04:46.352Z,6.40
2022-08-26T09:05:48.881Z,6.50
2022-08-26T09:08:19.928Z,6.40
2022-08-26T09:08:21.619Z,5.70
2022-08-26T09:09:22.374Z,6.10
2022-08-26T09:10:21.587Z,6.20
2022-08-26T09:11:35.850Z,6.10
2022-08-26T09:12:21.591Z,5.90
2022-08-26T09:13:26.374Z,5.80
2022-08-26T09:14:21.514Z,6.30
2022-08-26T09:15:21.562Z,5.50
2022-08-26T09:16:21.601Z,6.10
2022-08-26T09:17:21.536Z,6.20
2022-08-26T09:18:21.466Z,6.20
2022-08-26T09:19:21.549Z,5.40
2022-08-26T09:20:21.445Z,5.80
2022-08-26T09:21:21.439Z,6.00
2022-08-26T09:23:22.479Z,5.70
2022-08-26T09:24:28.844Z,6.20
2022-08-26T09:25:23.091Z,5.70
2022-08-26T09:26:23.543Z,5.40
2022-08-26T09:27:22.450Z,5.80
2022-08-26T09:28:21.418Z,5.90
2022-08-26T09:29:22.385Z,5.40
2022-08-26T09:30:21.622Z,5.90
2022-08-26T09:31:21.404Z,5.60
2022-08-26T09:32:21.454Z,5.90
2022-08-26T09:33:21.365Z,5.20
2022-08-26T09:34:21.387Z,5.70
2022-08-26T09:35:21.363Z,5.00
2022-08-26T09:36:22.136Z,5.30
2022-08-26T09:37:21.311Z,5.30
2022-08-26T09:38:21.342Z,5.50
2022-08-26T09:39:21.316Z,5.70
2022-08-26T09:40:21.701Z,5.80
2022-08-26T09:41:27.670Z,5.30
2022-08-26T09:42:21.248Z,5.40
2022-08-26T09:43:23.027Z,5.50
2022-08-26T09:44:24.936Z,5.70
2022-08-26T09:45:22.446Z,5.50
2022-08-26T09:46:21.507Z,6.00
2022-08-26T09:47:21.234Z,5.40
2022-08-26T09:48:21.162Z,5.40
2022-08-26T09:49:21.680Z,5.20
2022-08-26T09:50:21.206Z,5.70
2022-08-26T09:51:21.150Z,5.70
2022-08-26T09:52:21.222Z,5.40
2022-08-26T09:53:25.190Z,5.20
2022-08-26T09:54:22.494Z,5.50
2022-08-26T09:55:22.334Z,6.30
2022-08-26T09:56:21.118Z,5.40
2022-08-26T09:57:21.187Z,5.40
2022-08-26T09:58:21.110Z,5.50
2022-08-26T09:59:21.131Z,5.60
2022-08-26T10:00:21.088Z,5.80
2022-08-26T10:01:21.282Z,5.70
2022-08-26T10:02:23.819Z,5.70
2022-08-26T10:03:21.115Z,5.70
2022-08-26T10:04:21.088Z,6.00
2022-08-26T10:05:21.045Z,5.90
2022-08-26T10:06:50.746Z,6.00
2022-08-26T10:07:22.260Z,5.90
2022-08-26T10:08:21.467Z,5.80
2022-08-26T10:09:22.061Z,5.40
2022-08-26T10:11:58.061Z,5.70
2022-08-26T10:13:51.229Z,5.00
2022-08-26T10:14:21.648Z,5.40
2022-08-26T10:15:00.971Z,5.50
2022-08-26T10:15:59.545Z,5.20
2022-08-26T10:16:59.864Z,5.50
2022-08-26T10:18:00.248Z,5.20
2022-08-26T10:19:00.312Z,5.20
2022-08-26T10:20:02.966Z,5.50
2022-08-26T10:20:59.134Z,5.60
2022-08-26T10:22:00.172Z,5.60
2022-08-26T10:22:59.116Z,5.30
2022-08-26T10:23:59.116Z,5.80
2022-08-26T10:24:59.102Z,5.80
2022-08-26T10:26:00.058Z,5.80
2022-08-26T10:27:00.353Z,5.30
2022-08-26T10:27:59.105Z,5.10
2022-08-26T10:28:59.075Z,5.50
2022-08-26T10:29:59.089Z,5.70
2022-08-26T10:30:59.092Z,5.40
2022-08-26T10:33:57.989Z,5.40
2022-08-26T10:34:00.816Z,5.10
2022-08-26T10:34:59.639Z,4.60
2022-08-26T10:35:59.649Z,4.90
2022-08-26T10:38:21.390Z,5.00
2022-08-26T10:39:41.572Z,5.00
2022-08-26T10:40:42.263Z,5.10
2022-08-26T10:41:42.306Z,5.00
2022-08-26T10:42:44.166Z,5.20
2022-08-26T10:43:42.877Z,5.40
2022-08-26T10:44:46.331Z,5.10
2022-08-26T10:45:44.925Z,4.80
2022-08-26T10:46:42.580Z,5.20
2022-08-26T10:47:43.354Z,5.00
2022-08-26T10:48:42.539Z,5.10
2022-08-26T10:49:43.389Z,5.10
2022-08-26T10:50:47.462Z,4.90
2022-08-26T10:51:42.678Z,4.90
2022-08-26T10:52:43.268Z,4.80
2022-08-26T10:53:51.483Z,5.20
2022-08-26T10:54:43.589Z,5.10
2022-08-26T10:55:42.492Z,4.80
2022-08-26T10:56:43.458Z,4.80
2022-08-26T10:57:42.448Z,5.10
2022-08-26T10:58:42.578Z,4.80
2022-08-26T10:59:42.419Z,4.50
2022-08-26T11:00:43.960Z,4.90
2022-08-26T11:01:50.095Z,4.60
2022-08-26T11:02:47.159Z,5.00
2022-08-26T11:03:43.446Z,5.20
2022-08-26T11:04:46.976Z,4.80
2022-08-26T11:06:04.286Z,4.70
2022-08-26T11:06:42.358Z,4.70
2022-08-26T11:07:42.464Z,4.80
2022-08-26T11:08:42.978Z,5.40
2022-08-26T11:09:43.250Z,4.50
2022-08-26T11:10:43.729Z,4.60
2022-08-26T11:11:42.798Z,4.80
2022-08-26T11:12:43.768Z,4.60
2022-08-26T11:13:46.973Z,4.60
2022-08-26T11:14:53.214Z,4.10
2022-08-26T11:15:42.325Z,4.50
2022-08-26T11:16:43.425Z,4.30
2022-08-26T11:17:47.170Z,4.20
2022-08-26T11:18:42.362Z,4.20
2022-08-26T11:19:59.549Z,4.50
2022-08-26T11:20:44.335Z,4.20
2022-08-26T11:21:42.543Z,4.30
2022-08-26T11:22:47.702Z,4.50
2022-08-26T11:23:45.348Z,3.70
2022-08-26T11:24:43.277Z,3.90
2022-08-26T11:25:43.260Z,4.40
2022-08-26T11:26:56.004Z,4.20
2022-08-26T11:27:44.037Z,4.00
2022-08-26T11:28:44.084Z,4.10
2022-08-26T11:29:42.237Z,4.30
2022-08-26T11:30:42.485Z,4.30
2022-08-26T11:31:42.229Z,4.20
2022-08-26T11:32:42.193Z,4.00
2022-08-26T11:33:42.180Z,3.80
2022-08-26T11:34:42.493Z,4.40
2022-08-26T11:35:47.635Z,4.30
2022-08-26T11:36:42.789Z,3.70
2022-08-26T11:38:50.703Z,3.90
2022-08-26T11:39:54.705Z,4.20
2022-08-26T11:40:53.616Z,4.20
2022-08-26T11:41:53.030Z,4.20
2022-08-26T11:42:51.788Z,4.10
2022-08-26T11:43:52.424Z,3.90
2022-08-26T11:44:51.718Z,3.80
2022-08-26T11:45:51.738Z,3.90
2022-08-26T11:46:51.662Z,4.10
2022-08-26T11:47:52.074Z,4.10
2022-08-26T11:48:51.746Z,4.00
2022-08-26T11:49:51.655Z,4.00
2022-08-26T11:50:51.655Z,4.30
2022-08-26T11:51:52.590Z,4.10
2022-08-26T11:52:51.705Z,4.00
2022-08-26T11:53:51.622Z,4.10
2022-08-26T11:54:51.697Z,4.00
2022-08-26T11:55:52.389Z,3.70
2022-08-26T11:56:51.586Z,3.70
2022-08-26T11:57:51.584Z,4.10
2022-08-26T11:58:51.596Z,3.90
2022-08-26T11:59:51.559Z,4.40
2022-08-26T12:00:51.529Z,4.70
2022-08-26T12:01:51.578Z,4.30
2022-08-26T12:02:52.499Z,4.10
2022-08-26T12:03:52.239Z,3.90
2022-08-26T12:04:51.482Z,4.20
2022-08-26T12:05:51.485Z,4.50
2022-08-26T12:06:51.494Z,3.70
2022-08-26T12:07:51.476Z,4.10
2022-08-26T12:08:51.607Z,4.10
2022-08-26T12:09:51.454Z,4.30
2022-08-26T12:10:51.462Z,4.60
2022-08-26T12:11:51.466Z,4.70
2022-08-26T12:12:51.415Z,4.00
2022-08-26T12:13:51.376Z,4.30
2022-08-26T12:14:51.469Z,4.60
2022-08-26T12:15:51.396Z,4.10
2022-08-26T12:16:51.434Z,4.20
2022-08-26T12:17:54.329Z,4.50
2022-08-26T12:18:52.378Z,4.60
2022-08-26T12:19:51.395Z,4.50
2022-08-26T12:20:51.381Z,5.00
2022-08-26T12:21:51.422Z,5.00
2022-08-26T12:22:51.367Z,4.80
2022-08-26T12:23:52.269Z,4.70
2022-08-26T12:24:51.306Z,4.60
2022-08-26T12:25:51.311Z,5.20
2022-08-26T12:26:51.357Z,5.10
2022-08-26T12:27:53.703Z,5.00
2022-08-26T12:28:52.280Z,4.90
2022-08-26T12:29:51.276Z,5.30
2022-08-26T12:30:51.401Z,5.70
2022-08-26T12:31:51.278Z,5.40
2022-08-26T12:32:57.810Z,5.60
2022-08-26T12:33:52.287Z,5.80
2022-08-26T12:34:51.219Z,5.50
2022-08-26T12:35:54.747Z,5.60
2022-08-26T12:36:53.376Z,6.20
2022-08-26T12:37:51.813Z,5.50
2022-08-26T12:38:51.216Z,6.00
2022-08-26T12:39:51.300Z,6.10
2022-08-26T12:40:51.224Z,5.90
2022-08-26T12:41:51.170Z,6.00
2022-08-26T12:42:51.273Z,6.30
2022-08-26T12:43:52.201Z,6.30
2022-08-26T12:44:53.471Z,6.00
2022-08-26T12:45:51.219Z,5.70
2022-08-26T12:46:52.110Z,5.80
2022-08-26T12:47:51.186Z,5.40
2022-08-26T12:48:51.341Z,5.70
2022-08-26T12:49:51.157Z,5.60
2022-08-26T12:50:51.139Z,6.00
2022-08-26T12:51:51.123Z,5.80
2022-08-26T12:52:51.087Z,6.20
2022-08-26T12:53:51.119Z,6.20
2022-08-26T12:54:56.086Z,6.10
2022-08-26T12:55:53.094Z,6.00
2022-08-26T12:56:51.964Z,6.10
2022-08-26T12:57:51.084Z,6.70
2022-08-26T12:58:51.158Z,6.60
2022-08-26T12:59:51.002Z,6.40
2022-08-26T13:00:51.915Z,6.40
2022-08-26T13:01:51.108Z,6.50
2022-08-26T13:02:51.001Z,6.60
2022-08-26T13:03:50.980Z,6.70
2022-08-26T13:04:50.961Z,7.60
2022-08-26T13:05:50.977Z,7.20
2022-08-26T13:06:50.945Z,7.00
2022-08-26T13:07:51.805Z,7.20
2022-08-26T13:08:50.924Z,7.80
2022-08-26T13:09:51.671Z,7.50
2022-08-26T13:10:50.932Z,7.30
2022-08-26T13:11:51.817Z,8.40
2022-08-26T13:12:50.899Z,7.60
2022-08-26T13:13:51.129Z,7.30
2022-08-26T13:14:50.875Z,7.70
2022-08-26T13:15:50.890Z,9.00
2022-08-26T13:16:50.890Z,8.70
2022-08-26T13:17:50.880Z,8.50
2022-08-26T13:18:50.881Z,7.80
2022-08-26T13:19:50.855Z,8.40
2022-08-26T13:20:50.813Z,8.10
2022-08-26T13:21:50.814Z,8.30
2022-08-26T13:22:58.893Z,9.50
2022-08-26T13:23:51.773Z,9.80
2022-08-26T13:24:50.805Z,9.50
2022-08-26T13:25:50.790Z,8.10
2022-08-26T13:26:50.756Z,9.60
2022-08-26T13:27:50.827Z,9.70
2022-08-26T13:29:01.425Z,10.40
2022-08-26T13:29:51.750Z,10.20
2022-08-26T13:30:50.709Z,10.10
2022-08-26T13:31:50.751Z,11.30
2022-08-26T13:32:50.745Z,10.60
2022-08-26T13:33:50.734Z,11.00
2022-08-26T13:34:51.396Z,10.90
2022-08-26T13:35:51.682Z,10.40
2022-08-26T13:36:51.321Z,10.00
2022-08-26T13:37:52.650Z,9.90
2022-08-26T13:38:51.989Z,11.10
2022-08-26T13:39:50.705Z,10.90